Time;durP1;ratioP1;P1;durP2;ratioP2;P2;SDS_P1;SDS_P2;PMS_P1;PMS_P2;Temp;Humidity;BMP_temperature;BMP_pressure;BME280_temperature;BME280_humidity;BME280_pressure;Samples;Min_cycle;Max_cycle;Signal;HPM_P1;HPM_P2
2023/12/18 00:00:48;;;;;;;10.73;9.63;;;5.90;99.90;;;;;;4971902;28;20233;-63
2023/12/18 00:03:16;;;;;;;10.73;9.73;;;6.10;99.90;;;;;;4971610;28;20273;-62
2023/12/18 00:05:43;;;;;;;13.37;11.83;;;6.20;99.90;;;;;;4989852;28;20272;-62
2023/12/18 00:08:11;;;;;;;11.53;10.50;;;6.10;99.90;;;;;;4990352;28;20228;-61
2023/12/18 00:10:38;;;;;;;12.43;11.13;;;6.00;99.90;;;;;;4990758;28;20212;-61
2023/12/18 00:13:05;;;;;;;11.87;10.67;;;6.10;99.90;;;;;;4984494;28;20289;-61
2023/12/18 00:15:32;;;;;;;11.23;10.23;;;6.10;99.90;;;;;;4955263;28;20296;-61
2023/12/18 00:17:59;;;;;;;10.63;9.53;;;6.00;99.90;;;;;;4989926;28;20279;-74
2023/12/18 00:20:27;;;;;;;10.97;10.03;;;6.20;99.90;;;;;;4989324;28;20547;-62
2023/12/18 00:22:54;;;;;;;10.20;9.30;;;6.10;99.90;;;;;;4982643;28;20201;-61
2023/12/18 00:25:21;;;;;;;10.13;8.70;;;6.10;99.90;;;;;;4972407;28;20198;-62
2023/12/18 00:27:48;;;;;;;11.03;10.23;;;6.00;99.90;;;;;;4994507;28;20252;-61
2023/12/18 00:30:15;;;;;;;10.17;9.17;;;6.10;99.90;;;;;;5010101;28;20207;-62
2023/12/18 00:32:43;;;;;;;10.63;9.93;;;6.10;99.90;;;;;;4991022;28;20221;-61
2023/12/18 00:35:10;;;;;;;10.67;9.77;;;6.30;99.90;;;;;;5006859;28;20203;-62
2023/12/18 00:37:37;;;;;;;10.27;9.57;;;6.20;99.90;;;;;;5010295;28;20208;-61
2023/12/18 00:40:05;;;;;;;10.50;9.60;;;6.00;99.90;;;;;;5008867;28;20193;-70
2023/12/18 00:42:32;;;;;;;11.33;10.27;;;5.90;99.90;;;;;;4993629;28;20201;-69
2023/12/18 00:44:59;;;;;;;10.23;9.63;;;6.10;99.90;;;;;;4995376;28;20197;-70
2023/12/18 00:47:26;;;;;;;11.00;10.17;;;6.20;99.90;;;;;;5006319;28;20211;-69
2023/12/18 00:49:53;;;;;;;10.93;10.13;;;6.20;99.90;;;;;;4991145;28;20201;-63
2023/12/18 00:52:20;;;;;;;10.60;10.00;;;6.10;99.90;;;;;;4989081;28;20227;-61
2023/12/18 00:54:47;;;;;;;10.83;9.93;;;6.00;99.90;;;;;;4981798;28;20193;-62
2023/12/18 00:57:14;;;;;;;11.20;10.40;;;6.10;99.90;;;;;;4987127;28;20280;-61
2023/12/18 00:59:41;;;;;;;10.90;10.20;;;6.00;99.90;;;;;;5002114;28;20193;-62
2023/12/18 01:02:08;;;;;;;11.33;10.10;;;6.10;99.90;;;;;;5006182;28;20687;-64
2023/12/18 01:04:35;;;;;;;11.67;10.60;;;6.00;99.90;;;;;;4986811;28;20197;-61
2023/12/18 01:07:02;;;;;;;12.27;11.37;;;6.00;99.90;;;;;;4991345;28;20761;-61
2023/12/18 01:09:29;;;;;;;14.60;11.00;;;6.10;99.90;;;;;;5010703;28;20197;-61
2023/12/18 01:11:57;;;;;;;11.90;11.03;;;6.40;99.90;;;;;;5009191;28;20197;-61
2023/12/18 01:14:23;;;;;;;12.13;11.07;;;6.20;99.90;;;;;;4976166;28;20296;-61
2023/12/18 01:16:52;;;;;;;11.57;10.87;;;6.30;99.90;;;;;;5010015;28;20205;-62
2023/12/18 01:19:20;;;;;;;11.70;11.00;;;6.40;99.90;;;;;;5007660;28;20197;-61
2023/12/18 01:21:47;;;;;;;11.90;11.10;;;6.20;99.90;;;;;;4974940;28;20219;-61
2023/12/18 01:24:16;;;;;;;13.00;11.90;;;6.00;99.90;;;;;;4988926;28;20201;-61
2023/12/18 01:26:43;;;;;;;11.90;11.20;;;6.00;99.90;;;;;;4988663;28;20848;-64
2023/12/18 01:29:10;;;;;;;12.13;11.23;;;5.80;99.90;;;;;;4972360;28;20213;-61
2023/12/18 01:31:37;;;;;;;12.57;11.60;;;5.70;99.90;;;;;;5005453;28;20201;-62
2023/12/18 01:34:04;;;;;;;12.27;11.37;;;5.90;99.90;;;;;;5008822;28;20208;-61
2023/12/18 01:36:31;;;;;;;12.30;11.30;;;5.90;99.90;;;;;;5007308;28;20646;-64
2023/12/18 01:38:58;;;;;;;11.80;11.00;;;5.90;99.90;;;;;;5007744;28;20892;-62
2023/12/18 01:41:25;;;;;;;14.03;12.67;;;5.90;99.90;;;;;;5009992;28;20207;-62
2023/12/18 01:43:52;;;;;;;12.77;11.83;;;5.90;99.90;;;;;;5007992;28;20201;-62
2023/12/18 01:46:24;;;;;;;13.37;12.13;;;5.90;99.90;;;;;;4991802;28;20735;-61
2023/12/18 01:48:51;;;;;;;13.27;12.23;;;5.80;99.90;;;;;;5008707;28;20201;-70
2023/12/18 01:51:20;;;;;;;13.63;12.20;;;5.70;99.90;;;;;;4991495;28;20216;-68
2023/12/18 01:53:52;;;;;;;12.97;12.03;;;5.80;99.90;;;;;;5009139;28;20315;-69
2023/12/18 01:56:22;;;;;;;12.40;11.50;;;5.70;99.90;;;;;;5007805;28;20824;-69
2023/12/18 01:58:49;;;;;;;12.87;11.70;;;5.60;99.90;;;;;;5004405;28;20189;-62
2023/12/18 02:01:16;;;;;;;12.20;11.43;;;5.50;99.90;;;;;;5005130;28;20193;-64
2023/12/18 02:03:45;;;;;;;12.77;11.97;;;5.50;99.90;;;;;;5005944;28;20288;-64
2023/12/18 02:06:13;;;;;;;13.37;12.07;;;5.50;99.90;;;;;;5006519;28;20216;-65
2023/12/18 02:08:40;;;;;;;13.20;12.10;;;5.40;99.90;;;;;;5009163;28;20197;-64
2023/12/18 02:11:07;;;;;;;12.83;11.83;;;5.40;99.90;;;;;;4991544;28;20634;-69
2023/12/18 02:13:34;;;;;;;12.57;11.77;;;5.50;99.90;;;;;;5012976;28;20217;-64
2023/12/18 02:16:01;;;;;;;13.70;12.50;;;5.70;99.90;;;;;;5016266;28;20200;-61
2023/12/18 02:18:28;;;;;;;14.20;13.00;;;5.60;99.90;;;;;;5005758;28;20626;-68
2023/12/18 02:20:55;;;;;;;13.47;12.57;;;5.60;99.90;;;;;;4999679;28;20198;-65
2023/12/18 02:23:23;;;;;;;14.53;13.33;;;5.50;99.90;;;;;;4987929;28;20212;-62
2023/12/18 02:25:50;;;;;;;14.33;13.10;;;5.60;99.90;;;;;;5004366;28;20299;-62
2023/12/18 02:28:17;;;;;;;14.20;13.10;;;5.60;99.90;;;;;;5004484;28;20298;-62
2023/12/18 02:30:45;;;;;;;14.40;13.07;;;5.50;99.90;;;;;;4996997;28;20240;-62
2023/12/18 02:33:12;;;;;;;14.07;12.70;;;5.50;99.90;;;;;;5004741;28;20217;-62
2023/12/18 02:35:39;;;;;;;13.07;12.17;;;5.40;99.90;;;;;;5002224;28;20208;-62
2023/12/18 02:38:06;;;;;;;17.20;13.30;;;5.40;99.90;;;;;;5004459;28;20296;-63
2023/12/18 02:40:34;;;;;;;14.20;13.20;;;5.50;99.90;;;;;;4986018;28;20193;-62
2023/12/18 02:43:01;;;;;;;15.23;14.00;;;5.50;99.90;;;;;;4988135;28;20209;-62
2023/12/18 02:45:28;;;;;;;16.00;14.43;;;5.60;99.90;;;;;;5001127;28;20542;-62
2023/12/18 02:47:55;;;;;;;15.03;13.67;;;5.70;99.90;;;;;;5011853;28;20208;-64
2023/12/18 02:50:23;;;;;;;15.40;13.93;;;5.70;99.90;;;;;;5006541;28;20205;-62
2023/12/18 02:52:50;;;;;;;15.67;14.20;;;5.80;99.90;;;;;;4990966;28;20565;-62
2023/12/18 02:55:17;;;;;;;15.93;14.30;;;5.80;99.90;;;;;;4991647;28;20197;-66
2023/12/18 02:57:44;;;;;;;15.47;14.10;;;5.70;99.90;;;;;;5006592;28;20204;-63
2023/12/18 03:00:12;;;;;;;16.17;13.90;;;5.50;99.90;;;;;;4985348;28;20646;-64
2023/12/18 03:03:32;;;;;;;15.33;14.13;;;5.50;99.90;;;;;;4979430;28;20207;-64
2023/12/18 03:05:59;;;;;;;19.40;15.03;;;5.40;99.90;;;;;;5006624;28;20189;-62
2023/12/18 03:08:26;;;;;;;15.93;14.73;;;5.50;99.90;;;;;;5002073;28;20239;-68
2023/12/18 03:10:53;;;;;;;16.37;14.67;;;5.40;99.90;;;;;;5006730;28;20236;-69
2023/12/18 03:13:20;;;;;;;17.70;13.87;;;5.30;99.90;;;;;;5005098;28;20267;-71
2023/12/18 03:15:47;;;;;;;15.47;13.83;;;5.20;99.90;;;;;;4996776;28;20201;-70
2023/12/18 03:18:14;;;;;;;23.33;14.87;;;5.30;99.90;;;;;;5003649;28;20194;-69
2023/12/18 03:20:42;;;;;;;15.63;14.03;;;5.40;99.90;;;;;;5005929;28;20197;-67
2023/12/18 03:23:09;;;;;;;16.80;14.90;;;5.40;99.90;;;;;;5003875;28;20346;-68
2023/12/18 03:25:35;;;;;;;16.37;14.50;;;5.50;99.90;;;;;;4988347;28;20885;-67
2023/12/18 03:28:03;;;;;;;16.50;15.00;;;5.50;99.90;;;;;;5002812;28;20237;-71
2023/12/18 03:30:30;;;;;;;25.27;15.37;;;5.50;99.90;;;;;;5008356;28;20196;-70
2023/12/18 03:32:59;;;;;;;16.40;14.87;;;5.40;99.90;;;;;;5003927;28;20213;-71
2023/12/18 03:35:26;;;;;;;17.00;15.20;;;5.40;99.90;;;;;;5005596;28;20260;-71
2023/12/18 03:37:53;;;;;;;16.53;14.83;;;5.40;99.90;;;;;;5004174;28;20193;-70
2023/12/18 03:40:20;;;;;;;21.40;15.70;;;5.30;99.90;;;;;;5005550;28;20334;-72
2023/12/18 03:42:47;;;;;;;17.27;15.00;;;5.20;99.90;;;;;;5011921;28;20221;-71
2023/12/18 03:45:14;;;;;;;18.00;15.57;;;5.20;99.90;;;;;;4990850;28;20202;-71
2023/12/18 03:47:41;;;;;;;16.23;14.70;;;5.10;99.90;;;;;;5009166;28;20275;-71
2023/12/18 03:50:10;;;;;;;19.27;15.80;;;5.00;99.90;;;;;;4992832;28;20295;-72
2023/12/18 03:52:37;;;;;;;17.70;14.47;;;5.00;99.90;;;;;;5004933;28;20208;-69
2023/12/18 03:55:04;;;;;;;17.47;15.47;;;5.00;99.90;;;;;;5010605;28;20193;-70
2023/12/18 03:57:31;;;;;;;22.07;18.37;;;5.00;99.90;;;;;;5005851;28;20339;-66
2023/12/18 03:59:58;;;;;;;25.93;18.83;;;5.10;99.90;;;;;;4969762;28;20201;-70
2023/12/18 04:02:25;;;;;;;18.23;16.33;;;5.00;99.90;;;;;;4973229;28;20200;-69
2023/12/18 04:04:52;;;;;;;18.23;15.93;;;4.90;99.90;;;;;;4993124;28;20208;-68
2023/12/18 04:07:19;;;;;;;17.20;15.60;;;4.90;99.90;;;;;;5004469;28;20678;-69
2023/12/18 04:09:47;;;;;;;17.43;15.73;;;4.90;99.90;;;;;;4990611;28;20551;-61
2023/12/18 04:12:14;;;;;;;16.87;15.30;;;4.90;99.90;;;;;;5008369;28;20285;-62
2023/12/18 04:14:44;;;;;;;16.77;15.10;;;5.00;99.90;;;;;;5006283;28;20270;-61
2023/12/18 04:17:11;;;;;;;16.70;15.03;;;5.00;99.90;;;;;;5007090;28;20247;-63
2023/12/18 04:19:38;;;;;;;17.67;15.83;;;5.00;99.90;;;;;;5002178;28;20181;-64
2023/12/18 04:22:05;;;;;;;17.53;15.97;;;4.90;99.90;;;;;;5005706;28;20514;-63
2023/12/18 04:24:32;;;;;;;19.20;15.87;;;4.80;99.90;;;;;;5009337;28;20216;-61
2023/12/18 04:26:59;;;;;;;17.20;15.60;;;4.70;99.90;;;;;;4990601;28;20816;-64
2023/12/18 04:29:26;;;;;;;22.07;16.40;;;4.60;99.90;;;;;;4988518;28;20205;-66
2023/12/18 04:31:53;;;;;;;18.80;16.90;;;4.60;99.90;;;;;;5004309;28;20688;-62
2023/12/18 04:34:20;;;;;;;18.53;16.10;;;4.50;99.90;;;;;;4992001;28;20649;-61
2023/12/18 04:36:47;;;;;;;20.33;16.30;;;4.70;99.90;;;;;;4977423;28;20205;-61
2023/12/18 04:39:14;;;;;;;18.60;16.83;;;4.70;99.90;;;;;;4990821;28;20667;-62
2023/12/18 04:41:41;;;;;;;18.80;16.90;;;4.60;99.90;;;;;;5003215;28;20649;-61
2023/12/18 04:44:08;;;;;;;18.23;16.50;;;4.70;99.90;;;;;;5002648;28;20288;-64
2023/12/18 04:46:36;;;;;;;20.57;16.47;;;4.70;99.90;;;;;;5011506;28;20193;-62
2023/12/18 04:49:04;;;;;;;19.33;17.43;;;4.80;99.90;;;;;;5002567;28;20283;-62
2023/12/18 04:51:33;;;;;;;19.37;16.63;;;4.90;99.90;;;;;;5006391;28;20232;-63
2023/12/18 04:54:00;;;;;;;18.40;16.50;;;4.90;99.90;;;;;;5006651;28;20328;-62
2023/12/18 04:56:27;;;;;;;18.27;16.37;;;4.90;99.90;;;;;;4984129;28;20876;-63
2023/12/18 04:58:54;;;;;;;18.27;16.50;;;5.10;99.90;;;;;;4991956;28;20200;-62
2023/12/18 05:01:21;;;;;;;20.63;17.57;;;5.20;99.90;;;;;;5005621;28;20192;-63
2023/12/18 05:03:48;;;;;;;20.53;18.00;;;5.30;99.90;;;;;;5005986;28;20197;-62
2023/12/18 05:06:25;;;;;;;21.20;19.13;;;5.40;99.90;;;;;;5005447;28;20292;-62
2023/12/18 05:08:52;;;;;;;17.30;15.47;;;5.40;99.90;;;;;;4989828;28;20200;-63
2023/12/18 05:11:21;;;;;;;17.83;16.03;;;5.50;99.90;;;;;;4991229;28;20197;-63
2023/12/18 05:13:48;;;;;;;18.73;16.73;;;5.50;99.90;;;;;;4990342;28;20282;-62
2023/12/18 05:16:16;;;;;;;18.93;17.03;;;5.50;99.90;;;;;;4989154;28;20201;-62
2023/12/18 05:18:43;;;;;;;18.30;16.40;;;5.50;99.90;;;;;;5005679;28;20197;-69
2023/12/18 05:21:11;;;;;;;18.60;16.90;;;5.50;99.90;;;;;;4987942;28;20181;-69
2023/12/18 05:23:39;;;;;;;22.10;17.03;;;5.50;99.90;;;;;;5003964;28;21034;-70
2023/12/18 05:26:06;;;;;;;18.43;16.70;;;5.50;99.90;;;;;;5008801;28;20189;-68
2023/12/18 05:28:34;;;;;;;18.60;16.80;;;5.60;99.90;;;;;;5006923;28;20240;-70
2023/12/18 05:31:01;;;;;;;19.47;16.90;;;5.60;99.90;;;;;;4986148;28;20194;-69
2023/12/18 05:33:28;;;;;;;17.57;16.07;;;5.60;99.90;;;;;;4995250;28;20633;-69
2023/12/18 05:35:55;;;;;;;18.70;17.00;;;5.60;99.90;;;;;;5004765;28;20189;-69
2023/12/18 05:38:22;;;;;;;18.27;16.47;;;5.70;99.90;;;;;;5010495;28;20204;-69
2023/12/18 05:40:49;;;;;;;19.70;17.43;;;5.60;99.90;;;;;;5006993;28;20189;-69
2023/12/18 05:43:16;;;;;;;19.20;17.23;;;5.60;99.90;;;;;;5007072;28;20297;-69
2023/12/18 05:45:43;;;;;;;21.50;17.93;;;5.60;99.90;;;;;;4972659;28;20227;-69
2023/12/18 05:48:10;;;;;;;17.33;15.83;;;5.60;99.90;;;;;;4986723;28;20197;-69
2023/12/18 05:50:37;;;;;;;20.13;17.80;;;5.70;99.90;;;;;;5008337;28;20289;-69
2023/12/18 05:53:04;;;;;;;21.70;18.23;;;5.70;99.90;;;;;;5007682;28;20247;-69
2023/12/18 05:55:31;;;;;;;20.17;18.03;;;5.70;99.90;;;;;;4991832;28;20201;-69
2023/12/18 05:57:58;;;;;;;19.07;17.00;;;5.70;99.90;;;;;;4978674;28;20189;-69
2023/12/18 06:00:25;;;;;;;18.97;17.13;;;5.70;99.90;;;;;;5003576;28;20369;-69
2023/12/18 06:02:52;;;;;;;24.23;17.00;;;5.70;99.90;;;;;;4990811;28;20208;-69
2023/12/18 06:05:19;;;;;;;19.93;17.93;;;5.70;99.90;;;;;;4986386;28;20208;-69
2023/12/18 06:07:46;;;;;;;18.43;16.53;;;5.70;99.90;;;;;;4980542;28;20198;-69
2023/12/18 06:10:13;;;;;;;19.00;17.13;;;5.70;99.90;;;;;;5006393;28;20216;-69
2023/12/18 06:12:40;;;;;;;18.60;17.00;;;5.70;99.90;;;;;;5010253;28;20197;-68
2023/12/18 06:15:08;;;;;;;24.70;18.20;;;5.70;99.90;;;;;;5008858;28;20221;-69
2023/12/18 06:17:35;;;;;;;19.40;17.60;;;5.70;99.90;;;;;;4990955;28;20195;-69
2023/12/18 06:20:04;;;;;;;19.17;17.27;;;5.70;99.90;;;;;;5010300;28;20203;-69
2023/12/18 06:22:32;;;;;;;19.33;16.53;;;5.70;99.90;;;;;;5008842;28;20200;-68
2023/12/18 06:24:59;;;;;;;19.47;17.57;;;5.60;99.90;;;;;;5006654;28;20201;-69
2023/12/18 06:27:26;;;;;;;18.90;17.30;;;5.70;99.90;;;;;;5008189;28;20897;-67
2023/12/18 06:29:53;;;;;;;18.80;16.90;;;5.70;99.90;;;;;;4990938;28;20203;-64
2023/12/18 06:32:20;;;;;;;19.30;17.23;;;5.70;99.90;;;;;;5008591;28;20538;-62
2023/12/18 06:34:49;;;;;;;18.07;15.87;;;5.60;99.90;;;;;;5010920;28;20671;-63
2023/12/18 06:37:16;;;;;;;18.73;16.90;;;5.70;99.90;;;;;;5009870;28;20661;-64
2023/12/18 06:39:45;;;;;;;19.23;17.23;;;5.60;99.90;;;;;;4989653;28;20228;-69
2023/12/18 06:42:13;;;;;;;18.43;16.00;;;5.70;99.90;;;;;;5004109;28;20286;-69
2023/12/18 06:44:39;;;;;;;20.77;17.53;;;5.70;99.90;;;;;;4991423;28;20224;-70
2023/12/18 06:47:06;;;;;;;20.53;17.77;;;5.70;99.90;;;;;;5010473;28;20199;-69
2023/12/18 06:49:33;;;;;;;25.03;17.60;;;5.70;99.90;;;;;;4992279;28;20204;-69
2023/12/18 06:52:01;;;;;;;18.60;16.77;;;5.70;99.90;;;;;;4992636;28;20205;-69
2023/12/18 06:54:28;;;;;;;20.97;17.97;;;5.70;99.90;;;;;;5011494;28;20216;-69
2023/12/18 06:56:55;;;;;;;19.17;17.20;;;5.70;99.90;;;;;;5010837;28;20189;-69
2023/12/18 06:59:22;;;;;;;19.50;17.23;;;5.60;99.90;;;;;;4993540;28;20197;-70
2023/12/18 07:01:49;;;;;;;18.30;16.70;;;5.70;99.90;;;;;;5008744;28;20262;-69
2023/12/18 07:04:16;;;;;;;20.40;16.77;;;5.70;99.90;;;;;;5010062;28;20259;-69
2023/12/18 07:06:43;;;;;;;19.37;17.57;;;5.60;99.90;;;;;;5008866;28;20678;-69
2023/12/18 07:09:10;;;;;;;19.60;17.70;;;5.60;99.90;;;;;;4994163;28;20219;-70
2023/12/18 07:11:37;;;;;;;23.30;18.00;;;5.60;99.90;;;;;;4993876;28;20564;-69
2023/12/18 07:14:04;;;;;;;20.97;17.53;;;5.70;99.90;;;;;;4993654;28;20211;-69
2023/12/18 07:16:31;;;;;;;21.80;18.17;;;5.70;99.90;;;;;;5010609;28;20204;-69
2023/12/18 07:18:58;;;;;;;19.40;17.40;;;5.60;99.90;;;;;;4994597;28;20265;-69
2023/12/18 07:21:25;;;;;;;19.83;17.60;;;5.60;99.90;;;;;;4997189;28;20220;-68
2023/12/18 07:23:52;;;;;;;19.50;16.93;;;5.60;99.90;;;;;;5011103;28;20196;-69
2023/12/18 07:26:20;;;;;;;18.57;16.87;;;5.60;99.90;;;;;;4979613;28;20220;-69
2023/12/18 07:28:47;;;;;;;24.90;18.00;;;5.60;99.90;;;;;;4992354;28;20622;-69
2023/12/18 07:31:14;;;;;;;21.43;18.40;;;5.70;99.90;;;;;;4994282;28;20205;-71
2023/12/18 07:33:41;;;;;;;18.37;16.63;;;5.70;99.90;;;;;;4975274;28;20305;-71
2023/12/18 07:36:09;;;;;;;19.17;17.33;;;5.60;99.90;;;;;;4977541;28;20288;-70
2023/12/18 07:38:36;;;;;;;26.47;17.10;;;5.60;99.90;;;;;;4993712;28;20305;-65
2023/12/18 07:41:04;;;;;;;19.00;17.00;;;5.60;99.90;;;;;;4985832;28;20201;-63
2023/12/18 07:43:31;;;;;;;21.00;17.93;;;5.60;99.90;;;;;;4991821;28;20189;-65
2023/12/18 07:45:58;;;;;;;21.57;18.50;;;5.70;99.90;;;;;;4994077;28;20224;-64
2023/12/18 07:48:31;;;;;;;20.17;17.00;;;5.60;99.90;;;;;;4991962;28;20228;-69
2023/12/18 07:50:58;;;;;;;19.63;17.27;;;5.60;99.90;;;;;;4991106;28;20313;-70
2023/12/18 07:53:25;;;;;;;18.63;16.87;;;5.60;99.90;;;;;;4984361;28;20194;-71
2023/12/18 07:55:52;;;;;;;22.67;16.97;;;5.60;99.90;;;;;;4993102;28;20209;-71
2023/12/18 07:58:20;;;;;;;20.47;18.37;;;5.60;99.90;;;;;;4993647;28;20649;-71
2023/12/18 08:00:47;;;;;;;20.03;17.43;;;5.70;99.90;;;;;;4993630;28;20198;-71
2023/12/18 08:03:14;;;;;;;18.40;16.63;;;5.70;99.90;;;;;;4983247;28;20198;-70
2023/12/18 08:05:41;;;;;;;18.80;17.03;;;5.70;99.90;;;;;;4993001;28;20190;-71
2023/12/18 08:08:08;;;;;;;22.37;18.83;;;5.60;99.90;;;;;;4992445;28;20201;-70
2023/12/18 08:10:35;;;;;;;18.50;16.63;;;5.60;99.90;;;;;;4969556;28;20198;-70
2023/12/18 08:13:02;;;;;;;19.60;17.53;;;5.70;99.90;;;;;;4992787;28;20702;-71
2023/12/18 08:15:29;;;;;;;20.97;17.53;;;5.70;99.90;;;;;;4975096;28;20213;-70
2023/12/18 08:17:56;;;;;;;18.93;17.07;;;5.70;99.90;;;;;;4992539;28;20221;-72
2023/12/18 08:20:23;;;;;;;18.23;16.53;;;5.80;99.90;;;;;;4992933;28;20193;-70
2023/12/18 08:22:50;;;;;;;18.43;16.50;;;5.80;99.90;;;;;;4990417;28;20620;-71
2023/12/18 08:25:18;;;;;;;20.30;17.33;;;5.80;99.90;;;;;;4983285;28;20202;-70
2023/12/18 08:27:44;;;;;;;20.03;18.03;;;5.80;99.90;;;;;;4982975;28;20245;-70
2023/12/18 08:30:12;;;;;;;20.97;16.73;;;5.80;99.90;;;;;;4991473;28;20197;-70
2023/12/18 08:32:39;;;;;;;19.73;17.67;;;5.80;99.90;;;;;;4992295;28;20221;-70
2023/12/18 08:35:07;;;;;;;18.90;16.97;;;5.80;99.90;;;;;;4980390;28;20206;-70
2023/12/18 08:37:34;;;;;;;18.80;17.10;;;5.80;99.90;;;;;;4991393;28;20196;-70
2023/12/18 08:40:01;;;;;;;19.73;17.53;;;5.70;99.90;;;;;;4992247;28;20181;-70
2023/12/18 08:42:28;;;;;;;18.43;16.53;;;5.70;99.90;;;;;;4992181;28;20218;-69
2023/12/18 08:44:55;;;;;;;19.50;17.70;;;5.80;99.90;;;;;;4991921;28;20650;-70
2023/12/18 08:47:24;;;;;;;20.43;18.33;;;5.90;99.90;;;;;;4991584;28;20200;-70
2023/12/18 08:49:51;;;;;;;18.93;17.00;;;6.00;99.90;;;;;;4991787;28;20252;-69
2023/12/18 08:52:18;;;;;;;20.03;17.17;;;5.90;99.90;;;;;;4991536;28;20226;-69
2023/12/18 08:54:45;;;;;;;18.63;16.93;;;6.00;99.90;;;;;;4991699;28;20364;-70
2023/12/18 08:57:12;;;;;;;18.73;17.03;;;6.00;99.90;;;;;;4990613;28;20278;-70
2023/12/18 08:59:39;;;;;;;19.67;17.67;;;6.00;99.90;;;;;;4991277;28;20535;-70
2023/12/18 09:02:06;;;;;;;20.27;17.00;;;6.00;99.90;;;;;;4994681;28;20190;-70
2023/12/18 09:04:33;;;;;;;18.43;16.93;;;6.00;99.90;;;;;;4991511;28;20301;-70
2023/12/18 09:07:00;;;;;;;18.90;17.00;;;6.00;99.90;;;;;;4989873;28;20553;-70
2023/12/18 09:09:27;;;;;;;19.03;17.03;;;5.90;99.90;;;;;;4991407;28;20194;-70
2023/12/18 09:11:54;;;;;;;19.80;17.70;;;6.00;99.90;;;;;;4990910;28;20302;-70
2023/12/18 09:14:21;;;;;;;19.47;17.53;;;6.00;99.90;;;;;;4987783;28;20202;-70
2023/12/18 09:16:49;;;;;;;21.63;17.83;;;6.00;99.90;;;;;;4985631;28;20224;-70
2023/12/18 09:19:16;;;;;;;18.83;17.10;;;5.90;99.90;;;;;;4993903;28;20205;-70
2023/12/18 09:21:43;;;;;;;19.30;17.30;;;6.00;99.90;;;;;;4991415;28;20204;-70
2023/12/18 09:24:10;;;;;;;19.17;17.37;;;6.00;99.90;;;;;;4991177;28;20193;-71
2023/12/18 09:26:38;;;;;;;19.27;17.37;;;6.00;99.90;;;;;;4993115;28;20228;-70
2023/12/18 09:29:04;;;;;;;20.47;18.37;;;6.00;99.90;;;;;;5011112;28;20201;-69
2023/12/18 09:31:31;;;;;;;20.77;18.60;;;6.00;99.90;;;;;;4994004;28;20681;-69
2023/12/18 09:33:59;;;;;;;19.87;17.93;;;5.90;99.90;;;;;;5009814;28;20268;-70
2023/12/18 09:36:26;;;;;;;20.13;18.03;;;6.10;99.90;;;;;;5011955;28;20216;-71
2023/12/18 09:38:53;;;;;;;20.20;18.20;;;6.10;99.90;;;;;;5011290;28;20680;-71
2023/12/18 09:41:22;;;;;;;20.23;18.17;;;6.10;99.90;;;;;;4992810;28;20295;-71
2023/12/18 09:43:53;;;;;;;21.10;18.87;;;6.10;99.90;;;;;;5009145;28;20200;-70
2023/12/18 09:46:24;;;;;;;24.77;18.47;;;6.10;99.90;;;;;;4991783;28;20294;-71
2023/12/18 09:48:52;;;;;;;21.93;17.77;;;6.10;99.90;;;;;;4992683;28;20208;-69
2023/12/18 09:51:24;;;;;;;20.00;17.87;;;6.20;99.90;;;;;;5010260;28;20585;-70
2023/12/18 09:53:53;;;;;;;20.07;18.20;;;6.30;99.90;;;;;;4992187;28;20221;-70
2023/12/18 09:56:21;;;;;;;21.00;18.80;;;6.30;99.90;;;;;;4990720;28;20217;-71
2023/12/18 09:58:49;;;;;;;22.60;17.50;;;6.30;99.90;;;;;;4997715;28;20184;-71
2023/12/18 10:01:16;;;;;;;19.93;17.83;;;6.20;99.90;;;;;;5011699;28;20189;-71
2023/12/18 10:03:43;;;;;;;20.47;18.47;;;6.30;99.90;;;;;;5007736;28;20208;-70
2023/12/18 10:06:10;;;;;;;19.83;17.80;;;6.30;99.90;;;;;;4993386;28;20203;-68
2023/12/18 10:08:39;;;;;;;23.47;19.00;;;6.30;99.90;;;;;;4993524;28;20276;-69
2023/12/18 10:11:21;;;;;;;20.53;17.90;;;6.30;99.90;;;;;;5010566;28;20232;-70
2023/12/18 10:13:50;;;;;;;20.30;18.30;;;6.40;99.90;;;;;;4991817;28;20208;-70
2023/12/18 10:16:18;;;;;;;20.20;18.10;;;6.40;99.90;;;;;;4992786;28;20571;-69
2023/12/18 10:18:45;;;;;;;19.33;17.30;;;6.40;99.90;;;;;;5010915;28;20219;-70
2023/12/18 10:21:12;;;;;;;20.87;18.27;;;6.40;99.90;;;;;;4992313;28;20304;-70
2023/12/18 10:23:39;;;;;;;19.63;17.77;;;6.50;99.90;;;;;;5005437;28;20279;-70
2023/12/18 10:26:07;;;;;;;20.40;18.30;;;6.50;99.90;;;;;;4993691;28;20197;-70
2023/12/18 10:28:33;;;;;;;20.33;18.23;;;6.50;99.90;;;;;;4999720;28;20237;-70
2023/12/18 10:31:02;;;;;;;20.40;18.13;;;6.60;99.90;;;;;;4991488;28;20229;-70
2023/12/18 10:33:30;;;;;;;23.80;18.23;;;6.70;99.90;;;;;;4990488;28;20304;-67
2023/12/18 10:35:59;;;;;;;19.63;17.50;;;6.70;99.90;;;;;;4987667;28;20217;-69
2023/12/18 10:38:30;;;;;;;23.93;19.20;;;6.80;99.90;;;;;;4989658;28;20217;-69
2023/12/18 10:41:01;;;;;;;22.60;18.63;;;6.90;99.90;;;;;;4991102;28;20487;-69
2023/12/18 10:43:30;;;;;;;18.93;16.97;;;7.00;99.90;;;;;;4996730;28;20273;-70
2023/12/18 10:45:59;;;;;;;20.20;18.00;;;6.90;99.90;;;;;;4997687;28;20206;-70
2023/12/18 10:48:27;;;;;;;19.77;17.67;;;6.90;99.90;;;;;;4973696;28;20315;-71
2023/12/18 10:50:57;;;;;;;27.23;18.00;;;6.90;99.90;;;;;;4970297;28;20208;-71
2023/12/18 10:53:25;;;;;;;22.60;18.00;;;6.90;99.90;;;;;;4977812;28;20205;-71
2023/12/18 10:55:54;;;;;;;19.20;17.30;;;7.00;99.90;;;;;;4995313;28;20240;-70
2023/12/18 10:58:21;;;;;;;19.13;17.10;;;6.90;99.90;;;;;;4994650;28;20221;-71
2023/12/18 11:00:51;;;;;;;18.93;17.23;;;7.00;99.90;;;;;;5002728;28;20530;-71
2023/12/18 11:03:19;;;;;;;19.43;17.10;;;7.10;99.90;;;;;;4997082;28;20201;-70
2023/12/18 11:05:49;;;;;;;18.13;16.33;;;7.00;99.90;;;;;;4970498;28;20628;-70
2023/12/18 11:08:16;;;;;;;18.33;16.53;;;6.90;99.90;;;;;;4971615;28;20635;-70
2023/12/18 11:10:43;;;;;;;17.53;16.03;;;7.00;99.90;;;;;;4994287;28;20220;-70
2023/12/18 11:13:26;;;;;;;19.90;16.07;;;6.90;99.90;;;;;;4994431;28;20193;-70
2023/12/18 11:16:12;;;;;;;18.30;16.43;;;6.80;99.90;;;;;;4975174;28;20737;-71
2023/12/18 11:18:56;;;;;;;17.20;15.70;;;6.80;99.90;;;;;;5003351;28;20484;-70
2023/12/18 11:21:40;;;;;;;16.67;15.17;;;6.80;99.90;;;;;;4994669;28;20292;-70
2023/12/18 11:24:07;;;;;;;17.83;16.33;;;6.90;99.90;;;;;;4993196;28;20273;-71
2023/12/18 11:26:38;;;;;;;18.03;16.43;;;6.90;99.90;;;;;;4996462;28;20283;-71
2023/12/18 11:29:31;;;;;;;17.27;15.30;;;6.90;99.90;;;;;;5014046;28;20205;-70
2023/12/18 11:31:58;;;;;;;16.80;15.40;;;7.00;99.90;;;;;;5014346;28;20262;-71
2023/12/18 11:34:25;;;;;;;17.43;16.03;;;6.90;99.90;;;;;;5014502;28;20237;-70
2023/12/18 11:36:52;;;;;;;16.60;15.20;;;6.90;99.90;;;;;;5015714;28;20274;-71
2023/12/18 11:39:21;;;;;;;16.33;15.00;;;6.90;99.90;;;;;;5013747;28;20190;-71
2023/12/18 11:41:48;;;;;;;17.30;15.57;;;6.90;99.90;;;;;;5013789;28;20199;-70
2023/12/18 11:44:15;;;;;;;15.97;14.77;;;6.90;99.90;;;;;;5013931;28;20197;-69
2023/12/18 11:46:44;;;;;;;16.47;15.13;;;6.90;99.90;;;;;;5013078;28;20278;-71
2023/12/18 11:49:12;;;;;;;16.50;15.13;;;6.90;99.90;;;;;;4995978;28;20685;-71
2023/12/18 11:51:42;;;;;;;16.37;15.07;;;6.90;99.90;;;;;;5020830;28;20205;-69
2023/12/18 11:54:15;;;;;;;16.83;15.43;;;7.00;99.90;;;;;;4998473;28;20228;-70
2023/12/18 11:56:43;;;;;;;16.90;15.30;;;7.00;99.90;;;;;;5013713;28;20216;-70
2023/12/18 11:59:10;;;;;;;17.37;15.77;;;7.00;99.90;;;;;;5013178;28;20256;-70
2023/12/18 12:01:38;;;;;;;16.83;15.53;;;6.90;99.90;;;;;;5013066;28;20216;-71
2023/12/18 12:04:06;;;;;;;17.30;15.93;;;7.00;99.90;;;;;;5012183;28;20204;-71
2023/12/18 12:06:34;;;;;;;17.00;15.47;;;6.90;99.90;;;;;;5013339;28;20637;-71
2023/12/18 12:09:01;;;;;;;16.03;14.73;;;6.90;99.90;;;;;;5006077;28;20211;-70
2023/12/18 12:11:28;;;;;;;16.73;15.43;;;6.90;99.90;;;;;;4995733;28;20216;-71
2023/12/18 12:13:55;;;;;;;17.10;15.60;;;6.90;99.90;;;;;;5012079;28;20201;-69
2023/12/18 12:16:23;;;;;;;17.83;15.77;;;6.90;99.90;;;;;;4992859;28;20267;-70
2023/12/18 12:18:51;;;;;;;17.43;15.80;;;6.90;99.90;;;;;;5010912;28;20561;-70
2023/12/18 12:21:19;;;;;;;16.63;15.33;;;7.00;99.90;;;;;;5001633;28;20193;-71
2023/12/18 12:23:47;;;;;;;16.93;15.33;;;6.80;99.90;;;;;;5009945;28;20288;-70
2023/12/18 12:26:17;;;;;;;16.93;15.37;;;6.90;99.90;;;;;;5009434;28;20197;-71
2023/12/18 12:28:44;;;;;;;17.10;15.33;;;6.90;99.90;;;;;;4982468;28;20233;-71
2023/12/18 12:31:11;;;;;;;17.37;16.00;;;6.90;99.90;;;;;;4991370;28;21044;-69
2023/12/18 12:33:43;;;;;;;17.20;15.80;;;6.90;99.90;;;;;;4991993;28;20698;-69
2023/12/18 12:36:15;;;;;;;17.13;15.40;;;6.90;99.90;;;;;;4989940;28;20214;-70
2023/12/18 12:38:43;;;;;;;17.07;15.57;;;6.90;99.90;;;;;;4989414;28;20574;-69
2023/12/18 12:41:11;;;;;;;17.10;15.60;;;6.90;99.90;;;;;;4991321;28;20200;-70